createdAt,value
2022-08-28T00:00:32.069Z,100517.03
2022-08-28T00:03:00.452Z,100524.81
2022-08-28T00:05:31.575Z,100527.50
2022-08-28T00:08:00.023Z,100526.47
2022-08-28T00:10:28.962Z,100528.56
2022-08-28T00:12:58.120Z,100519.84
2022-08-28T00:15:28.750Z,100527.13
2022-08-28T00:17:56.482Z,100524.81
2022-08-28T00:20:24.600Z,100532.56
2022-08-28T00:22:55.484Z,100533.63
2022-08-28T00:25:25.059Z,100527.38
2022-08-28T00:27:55.247Z,100530.56
2022-08-28T00:30:25.287Z,100527.03
2022-08-28T00:32:55.153Z,100530.56
2022-08-28T00:35:24.286Z,100524.09
2022-08-28T00:37:54.974Z,100523.72
2022-08-28T00:40:30.508Z,100523.28
2022-08-28T00:43:01.820Z,100523.50
2022-08-28T00:45:29.989Z,100522.91
2022-08-28T00:47:58.412Z,100523.94
2022-08-28T00:50:29.575Z,100517.72
2022-08-28T00:53:01.002Z,100516.31
2022-08-28T00:55:30.371Z,100520.31
2022-08-28T00:58:00.694Z,100520.53
2022-08-28T01:00:32.160Z,100516.16
2022-08-28T01:03:00.156Z,100523.84
2022-08-28T01:05:29.289Z,100520.41
2022-08-28T01:08:00.196Z,100530.16
2022-08-28T01:10:30.035Z,100523.56
2022-08-28T01:12:58.674Z,100519.81
2022-08-28T01:15:32.688Z,100521.91
2022-08-28T01:18:08.234Z,100537.34
2022-08-28T01:20:39.105Z,100530.72
2022-08-28T01:23:14.461Z,100527.34
2022-08-28T01:25:43.678Z,100525.69
2022-08-28T01:28:14.216Z,100535.91
2022-08-28T01:30:45.516Z,100537.19
2022-08-28T01:33:14.445Z,100533.66
2022-08-28T01:35:45.251Z,100546.56
2022-08-28T01:38:13.015Z,100541.16
2022-08-28T01:40:50.471Z,100539.63
2022-08-28T01:43:19.949Z,100537.50
2022-08-28T01:45:52.914Z,100534.88
2022-08-28T01:48:22.084Z,100536.41
2022-08-28T01:50:50.742Z,100532.16
2022-08-28T01:53:25.057Z,100527.25
2022-08-28T01:55:56.815Z,100533.47
2022-08-28T01:58:26.365Z,100532.88
2022-08-28T02:00:55.716Z,100527.69
2022-08-28T02:03:24.490Z,100536.25
2022-08-28T02:05:52.574Z,100533.53
2022-08-28T02:08:21.150Z,100532.03
2022-08-28T02:10:50.113Z,100532.50
2022-08-28T02:13:19.305Z,100533.19
2022-08-28T02:15:47.602Z,100540.47
2022-08-28T02:18:15.788Z,100539.22
2022-08-28T02:20:43.922Z,100541.66
2022-08-28T02:23:12.441Z,100533.09
2022-08-28T02:25:41.817Z,100543.19
2022-08-28T02:28:09.817Z,100536.50
2022-08-28T02:30:40.072Z,100544.84
2022-08-28T02:33:08.357Z,100535.53
2022-08-28T02:35:36.133Z,100538.22
2022-08-28T02:38:04.653Z,100536.13
2022-08-28T02:40:32.620Z,100535.91
2022-08-28T02:43:00.331Z,100537.19
2022-08-28T02:45:27.965Z,100533.88
2022-08-28T02:47:57.301Z,100537.50
2022-08-28T02:50:25.804Z,100539.59
2022-08-28T02:52:53.589Z,100537.50
2022-08-28T02:55:21.829Z,100540.31
2022-08-28T02:57:49.996Z,100537.06
2022-08-28T03:00:21.131Z,100537.88
2022-08-28T03:02:49.932Z,100543.50
2022-08-28T03:05:21.773Z,100531.63
2022-08-28T03:07:49.906Z,100532.47
2022-08-28T03:10:18.636Z,100536.56
2022-08-28T03:12:46.642Z,100533.03
2022-08-28T03:15:14.608Z,100528.09
2022-08-28T03:17:42.359Z,100536.28
2022-08-28T03:20:12.861Z,100530.44
2022-08-28T03:22:59.694Z,100535.63
2022-08-28T03:25:28.065Z,100529.25
2022-08-28T03:27:56.025Z,100532.69
2022-08-28T03:30:24.160Z,100536.00
2022-08-28T03:32:51.935Z,100537.88
2022-08-28T03:35:20.236Z,100534.56
2022-08-28T03:37:49.305Z,100531.25
2022-08-28T03:40:17.525Z,100534.19
2022-08-28T03:42:53.394Z,100538.88
2022-08-28T03:45:22.601Z,100544.50
2022-08-28T03:47:51.015Z,100537.97
2022-08-28T03:50:19.711Z,100547.28
2022-08-28T03:52:49.360Z,100539.19
2022-08-28T03:55:18.825Z,100545.19
2022-08-28T03:57:46.817Z,100543.53
2022-08-28T04:00:16.420Z,100540.59
2022-08-28T04:02:44.793Z,100546.84
2022-08-28T04:05:13.972Z,100541.66
2022-08-28T04:07:41.770Z,100545.63
2022-08-28T04:10:12.097Z,100548.94
2022-08-28T04:12:39.868Z,100548.13
2022-08-28T04:15:09.148Z,100547.28
2022-08-28T04:17:39.022Z,100553.31
2022-08-28T04:20:08.525Z,100550.22
2022-08-28T04:22:37.281Z,100563.13
2022-08-28T04:25:05.471Z,100565.59
2022-08-28T04:27:35.079Z,100567.03
2022-08-28T04:30:03.033Z,100568.53
2022-08-28T04:32:30.711Z,100563.38
2022-08-28T04:34:58.534Z,100567.34
2022-08-28T04:37:27.873Z,100570.84
2022-08-28T04:39:56.023Z,100570.44
2022-08-28T04:42:23.781Z,100565.53
2022-08-28T04:44:56.946Z,100558.69
2022-08-28T04:47:24.640Z,100558.69
2022-08-28T04:49:52.286Z,100564.69
2022-08-28T04:52:19.996Z,100570.69
2022-08-28T04:54:47.647Z,100569.63
2022-08-28T04:57:15.280Z,100574.38
2022-08-28T04:59:44.983Z,100567.47
2022-08-28T05:02:14.156Z,100570.56
2022-08-28T05:04:41.899Z,100574.50
2022-08-28T05:07:09.635Z,100579.69
2022-08-28T05:09:37.313Z,100592.38
2022-08-28T05:12:06.499Z,100583.66
2022-08-28T05:14:34.137Z,100586.78
2022-08-28T05:17:01.797Z,100588.44
2022-08-28T05:19:31.283Z,100588.44
2022-08-28T05:21:59.000Z,100598.63
2022-08-28T05:24:26.812Z,100598.22
2022-08-28T05:26:54.494Z,100599.66
2022-08-28T05:29:24.223Z,100602.38
2022-08-28T05:31:53.125Z,100603.41
2022-08-28T05:34:21.397Z,100603.00
2022-08-28T05:36:52.378Z,100607.38
2022-08-28T05:39:20.106Z,100607.78
2022-08-28T05:41:48.046Z,100610.25
2022-08-28T05:44:18.078Z,100612.13
2022-08-28T05:46:48.134Z,100607.50
2022-08-28T05:49:17.772Z,100619.38
2022-08-28T05:51:46.230Z,100614.78
2022-08-28T05:54:16.124Z,100622.84
2022-08-28T05:56:46.097Z,100619.69
2022-08-28T05:59:22.794Z,100620.94
2022-08-28T06:01:50.796Z,100616.00
2022-08-28T06:04:23.402Z,100621.03
2022-08-28T06:06:51.199Z,100621.03
2022-08-28T06:09:28.107Z,100630.38
2022-08-28T06:11:58.717Z,100630.13
2022-08-28T06:14:27.738Z,100625.56
2022-08-28T06:16:56.925Z,100628.41
2022-08-28T06:19:27.161Z,100628.09
2022-08-28T06:21:57.173Z,100626.84
2022-08-28T06:24:27.464Z,100623.44
2022-08-28T06:26:58.532Z,100615.78
2022-08-28T06:29:27.516Z,100622.03
2022-08-28T06:31:56.659Z,100619.69
2022-08-28T06:34:24.396Z,100623.59
2022-08-28T06:36:54.184Z,100628.09
2022-08-28T06:39:22.772Z,100631.41
2022-08-28T06:41:52.314Z,100636.53
2022-08-28T06:44:21.813Z,100640.19
2022-08-28T06:46:51.721Z,100638.47
2022-08-28T06:49:19.477Z,100642.38
2022-08-28T06:51:47.265Z,100644.25
2022-08-28T06:54:21.149Z,100638.81
2022-08-28T06:56:52.203Z,100644.25
2022-08-28T06:59:19.844Z,100646.72
2022-08-28T07:01:47.648Z,100658.59
2022-08-28T07:04:15.749Z,100657.84
2022-08-28T07:06:46.769Z,100659.50
2022-08-28T07:09:15.135Z,100651.41
2022-08-28T07:11:46.583Z,100650.25
2022-08-28T07:14:15.753Z,100661.06
2022-08-28T07:16:44.447Z,100656.63
2022-08-28T07:19:13.386Z,100659.03
2022-08-28T07:21:44.100Z,100663.16
2022-08-28T07:24:14.675Z,100672.41
2022-08-28T07:26:43.547Z,100667.00
2022-08-28T07:29:11.957Z,100665.34
2022-08-28T07:31:44.009Z,100672.41
2022-08-28T07:34:13.699Z,100665.75
2022-08-28T07:36:41.972Z,100667.09
2022-08-28T07:39:10.849Z,100670.63
2022-08-28T07:41:42.489Z,100673.34
2022-08-28T07:44:30.179Z,100672.84
2022-08-28T07:47:02.219Z,100677.09
2022-08-28T07:49:30.013Z,100684.16
2022-08-28T07:51:58.111Z,100687.09
2022-08-28T07:54:25.839Z,100681.91
2022-08-28T07:56:54.091Z,100692.06
2022-08-28T07:59:22.009Z,100690.75
2022-08-28T08:01:51.801Z,100691.97
2022-08-28T08:04:23.355Z,100689.63
2022-08-28T08:06:57.181Z,100686.47
2022-08-28T08:09:27.251Z,100684.16
2022-08-28T08:11:57.281Z,100687.41
2022-08-28T08:14:25.611Z,100695.19
2022-08-28T08:16:53.476Z,100695.56
2022-08-28T08:19:22.680Z,100701.25
2022-08-28T08:21:54.883Z,100692.34
2022-08-28T08:24:26.095Z,100694.84
2022-08-28T08:26:59.328Z,100700.22
2022-08-28T08:29:29.519Z,100690.31
2022-08-28T08:31:58.190Z,100695.03
2022-08-28T08:34:27.262Z,100695.44
2022-08-28T08:36:55.392Z,100700.66
2022-08-28T08:39:23.171Z,100699.59
2022-08-28T08:41:55.806Z,100693.84
2022-08-28T08:44:34.031Z,100697.19
2022-08-28T08:47:14.624Z,100702.69
2022-08-28T08:49:50.769Z,100701.75
2022-08-28T08:52:34.456Z,100699.63
2022-08-28T08:55:20.302Z,100702.56
2022-08-28T08:57:52.327Z,100706.84
2022-08-28T09:00:21.639Z,100705.19
2022-08-28T09:02:58.131Z,100704.72
2022-08-28T09:05:40.167Z,100703.63
2022-08-28T09:08:13.197Z,100708.50
2022-08-28T09:10:53.030Z,100713.56
2022-08-28T09:13:29.521Z,100716.63
2022-08-28T09:15:57.249Z,100710.84
2022-08-28T09:18:28.095Z,100716.75
2022-08-28T09:20:59.355Z,100720.06
2022-08-28T09:23:29.883Z,100720.41
2022-08-28T09:26:01.739Z,100711.31
2022-08-28T09:28:34.202Z,100707.97
2022-08-28T09:31:05.611Z,100717.25
2022-08-28T09:33:41.711Z,100726.06
2022-08-28T09:36:33.609Z,100722.59
2022-08-28T09:39:14.018Z,100723.28
2022-08-28T09:42:09.409Z,100722.19
2022-08-28T09:44:51.322Z,100724.31
2022-08-28T09:47:46.492Z,100718.50
2022-08-28T09:50:34.627Z,100717.63
2022-08-28T09:53:20.552Z,100713.66
2022-08-28T09:55:56.398Z,100710.38
2022-08-28T09:58:29.523Z,100709.56
2022-08-28T10:01:04.004Z,100723.72
2022-08-28T10:03:39.455Z,100714.81
2022-08-28T10:06:12.348Z,100721.78
2022-08-28T10:08:55.328Z,100719.47
2022-08-28T10:11:31.734Z,100714.19
2022-08-28T10:14:10.380Z,100711.13
2022-08-28T10:16:47.632Z,100717.53
2022-08-28T10:19:27.008Z,100720.13
2022-08-28T10:22:04.834Z,100721.56
2022-08-28T10:24:57.822Z,100714.09
2022-08-28T10:27:41.448Z,100718.59
2022-08-28T10:30:13.992Z,100717.44
2022-08-28T10:33:01.368Z,100719.00
2022-08-28T10:35:41.701Z,100710.09
2022-08-28T10:38:13.216Z,100711.63
2022-08-28T10:40:51.609Z,100712.38
2022-08-28T10:43:25.038Z,100707.91
2022-08-28T10:45:55.032Z,100708.44
2022-08-28T10:48:27.053Z,100706.56
2022-08-28T10:51:01.101Z,100705.41
2022-08-28T10:53:33.977Z,100706.94
2022-08-28T10:56:07.715Z,100708.69
2022-08-28T10:58:39.409Z,100704.44
2022-08-28T11:01:10.733Z,100700.66
2022-08-28T11:03:43.571Z,100705.00
2022-08-28T11:06:19.443Z,100696.34
2022-08-28T11:08:54.154Z,100691.50
2022-08-28T11:11:43.578Z,100689.84
2022-08-28T11:14:23.228Z,100694.16
2022-08-28T11:16:51.628Z,100686.31
2022-08-28T11:19:45.491Z,100691.59
2022-08-28T11:22:18.717Z,100695.22
2022-08-28T11:25:01.737Z,100689.41
2022-08-28T11:27:34.578Z,100681.44
2022-08-28T11:30:33.030Z,100687.94
2022-08-28T11:33:10.132Z,100680.44
2022-08-28T11:35:48.296Z,100681.88
2022-08-28T11:38:49.034Z,100674.41
2022-08-28T11:41:22.643Z,100680.38
2022-08-28T11:44:12.831Z,100671.28
2022-08-28T11:46:42.381Z,100680.13
2022-08-28T11:49:39.300Z,100679.84
2022-08-28T11:52:15.578Z,100679.72
2022-08-28T11:54:52.456Z,100681.50
2022-08-28T11:57:26.478Z,100676.97
2022-08-28T12:00:05.059Z,100683.84
2022-08-28T12:02:59.311Z,100683.16
2022-08-28T12:05:48.719Z,100691.56
2022-08-28T12:08:54.954Z,100680.69
2022-08-28T12:12:04.529Z,100681.81
2022-08-28T12:15:07.383Z,100683.84
2022-08-28T12:17:54.070Z,100679.41
2022-08-28T12:20:48.312Z,100676.44
2022-08-28T12:23:43.512Z,100672.44
2022-08-28T12:26:22.256Z,100679.78
2022-08-28T12:28:52.883Z,100668.25
2022-08-28T12:32:09.118Z,100669.41
2022-08-28T12:34:44.426Z,100669.66
2022-08-28T12:37:26.614Z,100668.50
2022-08-28T12:39:57.457Z,100670.81
2022-08-28T12:42:31.535Z,100673.53
2022-08-28T12:45:19.509Z,100659.75
2022-08-28T12:47:50.972Z,100663.56
2022-08-28T12:50:23.274Z,100665.16
2022-08-28T12:52:52.218Z,100663.28
2022-08-28T12:55:24.293Z,100659.16
2022-08-28T12:57:53.941Z,100662.44
2022-08-28T13:00:24.134Z,100661.00
2022-08-28T13:02:55.471Z,100655.41
2022-08-28T13:05:30.400Z,100652.94
2022-08-28T13:08:01.106Z,100649.84
2022-08-28T13:10:31.185Z,100652.06
2022-08-28T13:13:05.596Z,100646.81
2022-08-28T13:15:53.418Z,100641.78
2022-08-28T13:18:59.146Z,100639.59
2022-08-28T13:21:35.010Z,100647.94
2022-08-28T13:24:27.264Z,100642.09
2022-08-28T13:27:04.824Z,100632.94
2022-08-28T13:29:33.293Z,100633.41
2022-08-28T13:32:03.262Z,100628.69
2022-08-28T13:34:34.191Z,100628.44
2022-08-28T13:37:05.829Z,100634.91
2022-08-28T13:39:42.324Z,100627.75
2022-08-28T13:42:13.844Z,100631.66
2022-08-28T13:44:48.557Z,100628.94
2022-08-28T13:47:17.203Z,100618.59
2022-08-28T13:49:46.506Z,100625.59
2022-08-28T13:52:14.824Z,100629.16
2022-08-28T13:54:43.652Z,100626.03
2022-08-28T13:57:13.354Z,100628.03
2022-08-28T13:59:41.813Z,100631.84
2022-08-28T14:02:30.866Z,100629.38
2022-08-28T14:05:00.719Z,100619.38
2022-08-28T14:07:29.367Z,100630.09
2022-08-28T14:09:57.234Z,100623.50
2022-08-28T14:12:32.726Z,100624.59
2022-08-28T14:15:01.566Z,100629.44
2022-08-28T14:17:29.413Z,100615.91
2022-08-28T14:19:57.467Z,100622.81
2022-08-28T14:22:26.476Z,100623.91
2022-08-28T14:24:54.275Z,100620.84
2022-08-28T14:27:21.903Z,100618.38
2022-08-28T14:29:49.966Z,100620.84
2022-08-28T14:32:17.657Z,100618.22
2022-08-28T14:34:45.868Z,100617.09
2022-08-28T14:37:13.699Z,100615.72
2022-08-28T14:39:45.024Z,100609.75
2022-08-28T14:42:13.280Z,100616.34
2022-08-28T14:44:41.143Z,100618.00
2022-08-28T14:47:08.927Z,100606.59
2022-08-28T14:49:36.610Z,100611.75
2022-08-28T14:52:04.928Z,100610.09
2022-08-28T14:54:32.905Z,100603.78
2022-08-28T14:57:02.265Z,100598.78
2022-08-28T14:59:31.885Z,100598.59
2022-08-28T15:02:01.763Z,100600.50
2022-08-28T15:04:34.639Z,100599.59
2022-08-28T15:07:06.441Z,100598.97
2022-08-28T15:09:37.733Z,100594.09
2022-08-28T15:12:07.672Z,100596.56
2022-08-28T15:14:36.013Z,100587.88
2022-08-28T15:17:04.385Z,100593.16
2022-08-28T15:19:32.177Z,100592.19
2022-08-28T15:22:00.311Z,100591.03
2022-08-28T15:24:31.331Z,100589.03
2022-08-28T15:26:59.674Z,100585.75
2022-08-28T15:29:29.969Z,100589.41
2022-08-28T15:31:58.915Z,100583.44
2022-08-28T15:34:28.385Z,100590.88
2022-08-28T15:36:57.877Z,100585.94
2022-08-28T15:39:45.182Z,100582.06
2022-08-28T15:42:13.505Z,100578.22
2022-08-28T15:44:42.672Z,100580.94
2022-08-28T15:47:10.358Z,100577.88
2022-08-28T15:49:44.729Z,100581.94
2022-08-28T15:52:16.309Z,100579.22
2022-08-28T15:54:43.993Z,100585.75
2022-08-28T15:57:11.667Z,100584.66
2022-08-28T15:59:48.577Z,100580.31
2022-08-28T16:02:20.442Z,100586.81
2022-08-28T16:04:48.609Z,100587.88
2022-08-28T16:07:16.690Z,100587.88
2022-08-28T16:09:44.356Z,100582.69
2022-08-28T16:12:12.197Z,100581.81
2022-08-28T16:14:40.095Z,100586.19
2022-08-28T16:17:10.706Z,100576.03
2022-08-28T16:19:40.987Z,100573.31
2022-08-28T16:22:08.950Z,100582.53
2022-08-28T16:24:36.889Z,100582.78
2022-08-28T16:27:06.218Z,100583.06
2022-08-28T16:29:36.589Z,100583.56
2022-08-28T16:32:05.938Z,100583.22
2022-08-28T16:34:34.590Z,100573.41
2022-08-28T16:37:03.614Z,100572.84
2022-08-28T16:39:31.394Z,100572.59
2022-08-28T16:41:59.539Z,100578.28
2022-08-28T16:44:27.356Z,100573.69
2022-08-28T16:46:55.818Z,100577.13
2022-08-28T16:49:24.880Z,100575.47
2022-08-28T16:51:52.703Z,100577.63
2022-08-28T16:54:22.330Z,100575.41
2022-08-28T16:56:50.059Z,100573.16
2022-08-28T16:59:18.991Z,100566.91
2022-08-28T17:01:47.506Z,100580.72
2022-08-28T17:04:20.860Z,100569.31
2022-08-28T17:06:48.656Z,100567.06
2022-08-28T17:09:16.367Z,100568.13
2022-08-28T17:11:51.538Z,100569.22
2022-08-28T17:14:20.271Z,100568.06
2022-08-28T17:16:48.457Z,100559.34
2022-08-28T17:19:16.381Z,100566.91
2022-08-28T17:22:01.936Z,100568.22
2022-08-28T17:24:30.931Z,100561.16
2022-08-28T17:27:05.161Z,100564.13
2022-08-28T17:29:33.900Z,100563.31
2022-08-28T17:32:01.870Z,100570.38
2022-08-28T17:34:30.579Z,100581.50
2022-08-28T17:36:58.671Z,100580.91
2022-08-28T17:39:26.795Z,100586.00
2022-08-28T17:41:54.470Z,100580.84
2022-08-28T17:44:23.663Z,100585.69
2022-08-28T17:46:52.599Z,100583.44
2022-08-28T17:49:20.329Z,100591.28
2022-08-28T17:51:48.118Z,100592.59
2022-08-28T17:54:17.765Z,100593.06
2022-08-28T17:56:46.432Z,100597.38
2022-08-28T17:59:15.130Z,100593.25
2022-08-28T18:01:46.425Z,100597.38
2022-08-28T18:04:16.219Z,100598.50
2022-08-28T18:06:46.358Z,100601.31
2022-08-28T18:09:15.437Z,100597.78
2022-08-28T18:11:43.510Z,100605.81
2022-08-28T18:14:11.279Z,100608.69
2022-08-28T18:16:39.963Z,100607.53
2022-08-28T18:19:10.829Z,100603.44
2022-08-28T18:21:39.425Z,100600.38
2022-08-28T18:24:08.254Z,100601.44
2022-08-28T18:26:36.545Z,100611.34
2022-08-28T18:29:04.521Z,100611.50
2022-08-28T18:31:32.520Z,100613.41
2022-08-28T18:34:00.264Z,100613.53
2022-08-28T18:36:29.427Z,100619.69
2022-08-28T18:38:57.833Z,100625.34
2022-08-28T18:41:34.483Z,100629.13
2022-08-28T18:44:12.372Z,100633.72
2022-08-28T18:46:40.067Z,100644.84
2022-08-28T18:49:07.931Z,100640.50
2022-08-28T18:51:37.374Z,100633.41
2022-08-28T18:54:05.224Z,100637.19
2022-08-28T18:56:33.971Z,100641.19
2022-08-28T18:59:04.185Z,100635.44
2022-08-28T19:01:32.024Z,100644.88
2022-08-28T19:03:59.851Z,100642.41
2022-08-28T19:06:27.623Z,100648.88
2022-08-28T19:08:57.290Z,100650.44
2022-08-28T19:11:25.430Z,100658.81
2022-08-28T19:13:53.619Z,100662.84
2022-08-28T19:16:21.843Z,100671.78
2022-08-28T19:18:51.473Z,100670.38
2022-08-28T19:21:20.843Z,100670.88
2022-08-28T19:23:56.031Z,100677.34
2022-08-28T19:26:26.475Z,100679.72
2022-08-28T19:28:54.412Z,100683.16
2022-08-28T19:31:22.897Z,100684.03
2022-08-28T19:33:52.522Z,100686.19
2022-08-28T19:36:21.293Z,100687.72
2022-08-28T19:38:49.190Z,100684.41
2022-08-28T19:41:17.730Z,100699.50
2022-08-28T19:43:46.854Z,100693.59
2022-08-28T19:46:20.112Z,100693.59
2022-08-28T19:48:48.850Z,100695.25
2022-08-28T19:51:22.210Z,100700.69
2022-08-28T19:53:56.868Z,100711.66
2022-08-28T19:56:27.189Z,100710.50
2022-08-28T19:58:58.917Z,100722.13
2022-08-28T20:01:29.430Z,100728.63
2022-08-28T20:03:58.344Z,100731.22
2022-08-28T20:06:26.343Z,100723.53
2022-08-28T20:08:54.079Z,100730.50
2022-08-28T20:11:24.892Z,100735.31
2022-08-28T20:13:53.323Z,100733.09
2022-08-28T20:16:22.586Z,100730.38
2022-08-28T20:18:50.946Z,100736.25
2022-08-28T20:21:36.713Z,100728.38
2022-08-28T20:24:07.406Z,100735.56
2022-08-28T20:26:35.645Z,100739.16
2022-08-28T20:29:03.778Z,100737.78
2022-08-28T20:31:33.097Z,100738.00
2022-08-28T20:34:00.895Z,100740.72
2022-08-28T20:36:28.605Z,100746.72
2022-08-28T20:38:56.345Z,100736.78
2022-08-28T20:41:24.167Z,100748.34
2022-08-28T20:43:54.382Z,100746.69
2022-08-28T20:46:22.165Z,100743.16
2022-08-28T20:48:51.281Z,100752.75
2022-08-28T20:51:39.387Z,100745.56
2022-08-28T20:54:07.154Z,100755.22
2022-08-28T20:56:34.927Z,100755.22
2022-08-28T20:59:02.738Z,100753.41
2022-08-28T21:01:32.087Z,100752.81
2022-08-28T21:04:01.430Z,100760.56
2022-08-28T21:06:30.224Z,100761.25
2022-08-28T21:08:58.119Z,100765.47
2022-08-28T21:11:25.909Z,100767.13
2022-08-28T21:13:54.082Z,100774.66
2022-08-28T21:16:22.298Z,100772.66
2022-08-28T21:19:14.743Z,100778.84
2022-08-28T21:21:39.684Z,100777.22
2022-08-28T21:24:10.444Z,100783.09
2022-08-28T21:26:38.285Z,100783.09
2022-08-28T21:29:06.507Z,100778.94
2022-08-28T21:31:34.923Z,100786.47
2022-08-28T21:34:02.724Z,100795.06
2022-08-28T21:36:30.514Z,100781.97
2022-08-28T21:38:59.684Z,100787.81
2022-08-28T21:41:27.440Z,100781.44
2022-08-28T21:43:56.809Z,100789.56
2022-08-28T21:46:24.686Z,100787.91
2022-08-28T21:48:53.359Z,100795.41
2022-08-28T21:51:21.504Z,100798.38
2022-08-28T21:53:49.399Z,100797.97
2022-08-28T21:56:22.716Z,100798.22
2022-08-28T21:58:51.164Z,100798.44
2022-08-28T22:01:20.501Z,100810.91
2022-08-28T22:03:48.777Z,100808.03
2022-08-28T22:06:19.374Z,100800.56
2022-08-28T22:08:48.123Z,100802.22
2022-08-28T22:11:17.103Z,100809.97
2022-08-28T22:13:54.755Z,100811.03
2022-08-28T22:16:23.525Z,100811.03
2022-08-28T22:18:51.909Z,100811.31
2022-08-28T22:21:43.883Z,100804.47
2022-08-28T22:24:13.172Z,100814.91
2022-08-28T22:26:42.211Z,100827.22
2022-08-28T22:29:11.823Z,100838.47
2022-08-28T22:31:43.917Z,100828.34
2022-08-28T22:34:14.137Z,100822.94
2022-08-28T22:36:41.805Z,100824.59
2022-08-28T22:39:09.488Z,100827.50
2022-08-28T22:41:38.567Z,100824.59
2022-08-28T22:44:07.165Z,100829.59
2022-08-28T22:46:36.268Z,100835.44
2022-08-28T22:49:04.385Z,100824.25
2022-08-28T22:51:34.767Z,100823.88
2022-08-28T22:54:02.618Z,100825.94
2022-08-28T22:56:30.310Z,100826.63
2022-08-28T22:58:57.944Z,100824.75
2022-08-28T23:01:26.731Z,100827.88
2022-08-28T23:03:57.841Z,100822.09
2022-08-28T23:06:25.622Z,100832.69
2022-08-28T23:08:53.313Z,100831.47
2022-08-28T23:11:21.153Z,100835.28
2022-08-28T23:13:50.549Z,100829.41
2022-08-28T23:16:23.874Z,100834.84
2022-08-28T23:19:08.912Z,100828.00
2022-08-28T23:21:43.890Z,100824.69
2022-08-28T23:24:13.163Z,100816.59
2022-08-28T23:26:40.928Z,100822.38
2022-08-28T23:29:09.218Z,100825.75
2022-08-28T23:31:37.301Z,100818.06
2022-08-28T23:34:05.485Z,100821.38
2022-08-28T23:36:35.500Z,100819.09
2022-08-28T23:39:05.790Z,100824.97
2022-08-28T23:41:33.980Z,100825.19
2022-08-28T23:44:07.799Z,100823.94
2022-08-28T23:46:36.773Z,100825.25
2022-08-28T23:49:09.238Z,100823.78
2022-08-28T23:51:36.959Z,100825.88
2022-08-28T23:54:06.146Z,100822.13
2022-08-28T23:56:36.548Z,100820.03
2022-08-28T23:59:05.209Z,100822.34
